createdAt,value
2022-09-02T00:01:00.794Z,94114.84
2022-09-02T00:03:28.724Z,94110.50
2022-09-02T00:05:56.518Z,94107.78
2022-09-02T00:08:24.206Z,94104.81
2022-09-02T00:10:52.079Z,94100.47
2022-09-02T00:13:21.167Z,94102.34
2022-09-02T00:15:50.526Z,94101.53
2022-09-02T00:18:18.561Z,94091.47
2022-09-02T00:20:48.242Z,94095.03
2022-09-02T00:23:16.575Z,94086.88
2022-09-02T00:25:44.995Z,94086.03
2022-09-02T00:28:13.003Z,94085.22
2022-09-02T00:30:41.130Z,94084.41
2022-09-02T00:33:10.311Z,94086.31
2022-09-02T00:35:38.029Z,94085.50
2022-09-02T00:38:06.139Z,94089.34
2022-09-02T00:40:33.929Z,94084.16
2022-09-02T00:43:01.707Z,94081.44
2022-09-02T00:45:30.709Z,94082.53
2022-09-02T00:47:58.408Z,94084.47
2022-09-02T00:50:29.482Z,94079.28
2022-09-02T00:53:00.214Z,94075.75
2022-09-02T00:55:28.796Z,94074.13
2022-09-02T00:58:00.843Z,94077.66
2022-09-02T01:00:34.553Z,94075.50
2022-09-02T01:03:04.442Z,94076.59
2022-09-02T01:05:35.775Z,94073.59
2022-09-02T01:08:07.268Z,94068.16
2022-09-02T01:10:35.625Z,94068.16
2022-09-02T01:13:07.018Z,94063.81
2022-09-02T01:15:36.410Z,94063.81
2022-09-02T01:18:04.728Z,94063.03
2022-09-02T01:20:33.821Z,94064.13
2022-09-02T01:23:03.254Z,94067.63
2022-09-02T01:25:32.473Z,94057.59
2022-09-02T01:28:00.918Z,94064.13
2022-09-02T01:30:28.711Z,94065.19
2022-09-02T01:32:56.588Z,94060.03
2022-09-02T01:35:24.458Z,94060.03
2022-09-02T01:37:56.014Z,94063.03
2022-09-02T01:40:25.845Z,94065.75
2022-09-02T01:42:55.769Z,94067.38
2022-09-02T01:45:23.699Z,94066.84
2022-09-02T01:47:51.543Z,94067.13
2022-09-02T01:50:19.443Z,94059.25
2022-09-02T01:52:47.206Z,94061.97
2022-09-02T01:55:15.074Z,94064.69
2022-09-02T01:57:44.233Z,94064.69
2022-09-02T02:00:13.705Z,94067.41
2022-09-02T02:02:43.257Z,94060.34
2022-09-02T02:05:11.188Z,94061.44
2022-09-02T02:07:38.978Z,94059.00
2022-09-02T02:10:07.997Z,94059.00
2022-09-02T02:12:35.658Z,94056.56
2022-09-02T02:15:05.002Z,94055.47
2022-09-02T02:17:32.694Z,94053.03
2022-09-02T02:20:00.399Z,94047.59
2022-09-02T02:22:28.165Z,94053.03
2022-09-02T02:24:55.920Z,94052.47
2022-09-02T02:27:23.689Z,94049.75
2022-09-02T02:29:51.342Z,94052.47
2022-09-02T02:32:23.733Z,94047.28
2022-09-02T02:34:51.436Z,94047.28
2022-09-02T02:37:23.415Z,94043.47
2022-09-02T02:39:53.103Z,94050.00
2022-09-02T02:42:21.013Z,94041.84
2022-09-02T02:44:48.734Z,94046.50
2022-09-02T02:47:16.443Z,94037.25
2022-09-02T02:49:45.506Z,94037.25
2022-09-02T02:52:13.298Z,94043.47
2022-09-02T02:54:41.134Z,94040.75
2022-09-02T02:57:09.096Z,94048.13
2022-09-02T02:59:37.210Z,94038.34
2022-09-02T03:02:05.396Z,94035.91
2022-09-02T03:04:33.924Z,94035.63
2022-09-02T03:07:03.351Z,94033.19
2022-09-02T03:09:31.871Z,94026.94
2022-09-02T03:11:59.573Z,94025.03
2022-09-02T03:14:27.252Z,94029.94
2022-09-02T03:16:54.972Z,94031.56
2022-09-02T03:19:22.618Z,94028.00
2022-09-02T03:21:50.362Z,94024.50
2022-09-02T03:24:19.891Z,94029.94
2022-09-02T03:26:47.661Z,94022.03
2022-09-02T03:29:15.386Z,94027.78
2022-09-02T03:31:43.085Z,94023.13
2022-09-02T03:34:12.181Z,94029.41
2022-09-02T03:36:40.763Z,94025.06
2022-09-02T03:39:09.969Z,94017.19
2022-09-02T03:41:41.119Z,94019.09
2022-09-02T03:44:08.931Z,94012.84
2022-09-02T03:46:36.741Z,94012.84
2022-09-02T03:49:04.935Z,94011.22
2022-09-02T03:51:32.681Z,94013.09
2022-09-02T03:54:02.601Z,94012.00
2022-09-02T03:56:30.439Z,94011.22
2022-09-02T03:58:59.499Z,94011.22
2022-09-02T04:01:28.830Z,94011.47
2022-09-02T04:04:02.094Z,94006.06
2022-09-02T04:06:32.912Z,93996.28
2022-09-02T04:09:00.710Z,94005.25
2022-09-02T04:11:28.349Z,94007.97
2022-09-02T04:13:56.077Z,94002.81
2022-09-02T04:16:29.017Z,94004.44
2022-09-02T04:18:57.657Z,94008.78
2022-09-02T04:21:25.323Z,94003.63
2022-09-02T04:23:53.397Z,93998.47
2022-09-02T04:26:22.153Z,93996.56
2022-09-02T04:28:50.058Z,94003.63
2022-09-02T04:31:18.687Z,94001.19
2022-09-02T04:33:47.847Z,93997.66
2022-09-02T04:36:16.943Z,93996.84
2022-09-02T04:38:44.643Z,94005.00
2022-09-02T04:41:13.268Z,93997.94
2022-09-02T04:43:41.189Z,94000.13
2022-09-02T04:46:34.891Z,93995.78
2022-09-02T04:49:04.598Z,93999.59
2022-09-02T04:51:32.670Z,93994.16
2022-09-02T04:54:00.437Z,93994.16
2022-09-02T04:56:29.616Z,93997.97
2022-09-02T04:58:57.444Z,93999.03
2022-09-02T05:01:26.438Z,94003.41
2022-09-02T05:03:54.680Z,94003.66
2022-09-02T05:06:26.295Z,93998.25
2022-09-02T05:08:54.508Z,93994.69
2022-09-02T05:11:24.289Z,94002.03
2022-09-02T05:13:52.428Z,94011.00
2022-09-02T05:16:21.763Z,94007.19
2022-09-02T05:18:49.529Z,94001.78
2022-09-02T05:21:17.242Z,93999.06
2022-09-02T05:23:46.310Z,94001.22
2022-09-02T05:26:14.132Z,94005.53
2022-09-02T05:28:42.320Z,94013.09
2022-09-02T05:31:11.192Z,94007.66
2022-09-02T05:33:40.851Z,94009.81
2022-09-02T05:36:08.942Z,94013.06
2022-09-02T05:38:36.652Z,94013.88
2022-09-02T05:41:08.124Z,94013.59
2022-09-02T05:43:37.141Z,94012.78
2022-09-02T05:46:08.088Z,94010.88
2022-09-02T05:48:53.437Z,94007.09
2022-09-02T05:51:21.282Z,94017.69
2022-09-02T05:53:49.630Z,94012.53
2022-09-02T05:56:18.706Z,94009.53
2022-09-02T05:58:46.528Z,94010.38
2022-09-02T06:01:15.717Z,94010.38
2022-09-02T06:03:43.451Z,94008.44
2022-09-02T06:06:11.122Z,94012.00
2022-09-02T06:08:38.940Z,94015.50
2022-09-02T06:11:08.679Z,94011.69
2022-09-02T06:13:38.872Z,94007.88
2022-09-02T06:16:09.105Z,94010.91
2022-09-02T06:18:36.863Z,94012.53
2022-09-02T06:21:05.220Z,94010.59
2022-09-02T06:23:34.298Z,94009.81
2022-09-02T06:26:01.991Z,94002.44
2022-09-02T06:28:29.758Z,94002.44
2022-09-02T06:30:58.992Z,94007.59
2022-09-02T06:33:26.674Z,93998.38
2022-09-02T06:35:54.302Z,94004.91
2022-09-02T06:38:21.964Z,94002.19
2022-09-02T06:40:50.386Z,94004.63
2022-09-02T06:43:18.500Z,94005.41
2022-09-02T06:45:46.364Z,94000.00
2022-09-02T06:48:15.390Z,94000.00
2022-09-02T06:50:44.245Z,94007.03
2022-09-02T06:53:11.861Z,93994.28
2022-09-02T06:55:39.716Z,94001.59
2022-09-02T06:58:07.410Z,94005.16
2022-09-02T07:00:36.947Z,94008.66
2022-09-02T07:03:30.945Z,94016.81
2022-09-02T07:06:03.687Z,94004.84
2022-09-02T07:08:31.300Z,94004.84
2022-09-02T07:10:59.118Z,94009.19
2022-09-02T07:13:26.725Z,94004.84
2022-09-02T07:15:54.309Z,94010.03
2022-09-02T07:18:21.927Z,94010.03
2022-09-02T07:20:49.662Z,94005.38
2022-09-02T07:23:18.795Z,94006.22
2022-09-02T07:25:46.433Z,94010.53
2022-09-02T07:28:14.093Z,94006.22
2022-09-02T07:30:42.452Z,94007.31
2022-09-02T07:33:13.524Z,94008.94
2022-09-02T07:35:42.312Z,94009.75
2022-09-02T07:38:10.144Z,94004.31
2022-09-02T07:40:39.383Z,94013.25
2022-09-02T07:43:07.734Z,94007.56
2022-09-02T07:45:35.954Z,94008.34
2022-09-02T07:48:07.130Z,94016.50
2022-09-02T07:50:34.915Z,94019.22
2022-09-02T07:53:07.135Z,94011.06
2022-09-02T07:55:36.006Z,94011.91
2022-09-02T07:58:05.571Z,94006.47
2022-09-02T08:00:33.286Z,94012.69
2022-09-02T08:03:01.719Z,94003.44
2022-09-02T08:05:29.612Z,94010.81
2022-09-02T08:07:57.241Z,94009.97
2022-09-02T08:10:25.774Z,94011.59
2022-09-02T08:12:53.434Z,94008.88
2022-09-02T08:15:22.468Z,94009.72
2022-09-02T08:17:50.102Z,94007.78
2022-09-02T08:20:18.130Z,94008.63
2022-09-02T08:22:50.770Z,94010.50
2022-09-02T08:25:26.979Z,94016.75
2022-09-02T08:30:24.738Z,94015.66
2022-09-02T08:32:52.381Z,94015.66
2022-09-02T08:35:20.537Z,94011.06
2022-09-02T08:37:48.158Z,94017.59
2022-09-02T08:40:17.218Z,94018.38
2022-09-02T08:42:49.651Z,94014.88
2022-09-02T08:45:21.882Z,94012.94
2022-09-02T08:47:54.180Z,94011.06
2022-09-02T08:50:22.040Z,94011.06
2022-09-02T08:52:54.107Z,94011.84
2022-09-02T08:55:25.449Z,94010.75
2022-09-02T08:57:56.207Z,94013.78
2022-09-02T09:00:24.098Z,94012.69
2022-09-02T09:02:58.129Z,94009.97
2022-09-02T09:05:31.253Z,93999.88
2022-09-02T09:08:04.571Z,94003.44
2022-09-02T09:10:37.594Z,94006.16
2022-09-02T09:13:20.907Z,93998.78
2022-09-02T09:15:52.874Z,93999.63
2022-09-02T09:18:24.784Z,93998.78
2022-09-02T09:20:52.382Z,94005.06
2022-09-02T09:23:26.521Z,94007.78
2022-09-02T09:25:56.097Z,94000.41
2022-09-02T09:28:23.709Z,93993.09
2022-09-02T09:30:52.077Z,93997.44
2022-09-02T09:33:19.708Z,93993.88
2022-09-02T09:35:52.450Z,93990.06
2022-09-02T09:38:30.742Z,93995.50
2022-09-02T09:41:21.506Z,93993.59
2022-09-02T09:43:49.191Z,93996.84
2022-09-02T09:46:22.438Z,93993.34
2022-09-02T09:48:51.476Z,93985.19
2022-09-02T09:51:20.591Z,93987.59
2022-09-02T09:53:48.271Z,93993.03
2022-09-02T09:56:32.299Z,93987.34
2022-09-02T09:59:07.127Z,93991.66
2022-09-02T10:01:34.982Z,93981.31
2022-09-02T10:04:12.223Z,93997.38
2022-09-02T10:06:50.594Z,93985.66
2022-09-02T10:09:31.812Z,93983.47
2022-09-02T10:12:00.453Z,93991.34
2022-09-02T10:14:34.702Z,93986.72
2022-09-02T10:17:07.662Z,93991.09
2022-09-02T10:19:37.928Z,93978.28
2022-09-02T10:22:58.457Z,93973.94
2022-09-02T10:25:28.737Z,93977.47
2022-09-02T10:28:04.081Z,93972.84
2022-09-02T10:30:33.422Z,93971.75
2022-09-02T10:33:08.839Z,93969.84
2022-09-02T10:35:40.293Z,93970.13
2022-09-02T10:38:13.973Z,93970.94
2022-09-02T10:40:44.481Z,93964.41
2022-09-02T10:43:21.461Z,93963.59
2022-09-02T10:45:50.804Z,93957.03
2022-09-02T10:48:28.917Z,93960.59
2022-09-02T10:50:57.106Z,93957.88
2022-09-02T10:53:46.962Z,93956.25
2022-09-02T10:56:15.793Z,93952.44
2022-09-02T10:58:46.597Z,93947.78
2022-09-02T11:01:19.181Z,93947.78
2022-09-02T11:03:57.706Z,93944.28
2022-09-02T11:06:35.313Z,93940.72
2022-09-02T11:09:10.671Z,93930.69
2022-09-02T11:11:40.261Z,93945.91
2022-09-02T11:14:18.218Z,93945.91
2022-09-02T11:16:51.151Z,93941.25
2022-09-02T11:19:21.381Z,93940.16
2022-09-02T11:21:51.836Z,93941.25
2022-09-02T11:24:23.367Z,93942.09
2022-09-02T11:26:56.219Z,93942.88
2022-09-02T11:29:31.928Z,93936.66
2022-09-02T11:32:03.914Z,93935.53
2022-09-02T11:34:36.402Z,93932.81
2022-09-02T11:37:04.529Z,93938.25
2022-09-02T11:39:54.007Z,93938.25
2022-09-02T11:42:28.658Z,93938.78
2022-09-02T11:45:31.060Z,93939.09
2022-09-02T11:48:10.587Z,93929.84
2022-09-02T11:50:54.017Z,93927.91
2022-09-02T11:53:22.847Z,93931.44
2022-09-02T11:55:53.900Z,93936.06
2022-09-02T11:58:38.848Z,93931.72
2022-09-02T12:01:29.752Z,93938.00
2022-09-02T12:04:56.185Z,93936.88
2022-09-02T12:07:26.833Z,93933.34
2022-09-02T12:10:00.306Z,93934.97
2022-09-02T12:13:08.078Z,93930.34
2022-09-02T12:15:36.317Z,93929.53
2022-09-02T12:18:15.425Z,93931.16
2022-09-02T12:21:18.642Z,93925.72
2022-09-02T12:24:10.390Z,93938.22
2022-09-02T12:27:17.936Z,93927.63
2022-09-02T12:29:46.918Z,93922.19
2022-09-02T12:33:02.090Z,93922.19
2022-09-02T12:35:50.090Z,93931.66
2022-09-02T12:38:28.454Z,93924.59
2022-09-02T12:40:59.787Z,93923.81
2022-09-02T12:43:28.498Z,93915.34
2022-09-02T12:45:59.913Z,93913.47
2022-09-02T12:48:38.657Z,93915.06
2022-09-02T12:51:06.841Z,93917.00
2022-09-02T12:53:37.186Z,93905.28
2022-09-02T12:56:06.846Z,93898.75
2022-09-02T12:58:35.937Z,93896.88
2022-09-02T13:01:11.752Z,93900.38
2022-09-02T13:03:52.665Z,93894.94
2022-09-02T13:06:25.625Z,93899.28
2022-09-02T13:09:04.643Z,93894.66
2022-09-02T13:12:11.865Z,93900.09
2022-09-02T13:14:59.671Z,93890.03
2022-09-02T13:17:36.983Z,93891.94
2022-09-02T13:20:40.829Z,93895.47
2022-09-02T13:23:19.406Z,93887.03
2022-09-02T13:26:07.525Z,93880.75
2022-09-02T13:29:00.228Z,93888.13
2022-09-02T13:31:28.472Z,93885.09
2022-09-02T13:34:01.112Z,93880.75
2022-09-02T13:36:35.806Z,93884.03
2022-09-02T13:39:17.028Z,93871.50
2022-09-02T13:41:44.750Z,93875.03
2022-09-02T13:44:13.036Z,93871.50
2022-09-02T13:46:45.206Z,93871.22
2022-09-02T13:49:22.693Z,93867.72
2022-09-02T13:51:51.541Z,93881.31
2022-09-02T13:54:28.674Z,93876.38
2022-09-02T13:56:56.843Z,93876.38
2022-09-02T13:59:34.933Z,93870.63
2022-09-02T14:02:17.805Z,93866.31
2022-09-02T14:04:47.085Z,93860.84
2022-09-02T14:07:14.725Z,93856.53
2022-09-02T14:09:42.347Z,93856.53
2022-09-02T14:12:09.936Z,93857.63
2022-09-02T14:14:37.561Z,93856.81
2022-09-02T14:17:22.152Z,93853.00
2022-09-02T14:19:51.203Z,93847.03
2022-09-02T14:22:28.289Z,93852.19
2022-09-02T14:24:56.085Z,93844.84
2022-09-02T14:27:24.216Z,93842.13
2022-09-02T14:29:55.396Z,93837.78
2022-09-02T14:32:23.946Z,93834.25
2022-09-02T14:35:12.570Z,93835.06
2022-09-02T14:37:49.559Z,93830.69
2022-09-02T14:40:17.542Z,93827.97
2022-09-02T14:42:52.621Z,93821.75
2022-09-02T14:45:27.004Z,93820.91
2022-09-02T14:47:54.668Z,93820.91
2022-09-02T14:50:27.070Z,93818.19
2022-09-02T14:52:56.791Z,93813.84
2022-09-02T14:55:49.978Z,93814.69
2022-09-02T14:58:17.914Z,93821.22
2022-09-02T15:00:47.185Z,93817.69
2022-09-02T15:03:15.958Z,93817.69
2022-09-02T15:05:45.217Z,93814.16
2022-09-02T15:08:13.052Z,93811.44
2022-09-02T15:10:40.853Z,93814.16
2022-09-02T15:13:08.557Z,93804.38
2022-09-02T15:15:36.179Z,93810.63
2022-09-02T15:18:05.347Z,93805.19
2022-09-02T15:20:36.897Z,93806.28
2022-09-02T15:23:06.045Z,93812.56
2022-09-02T15:25:34.733Z,93809.81
2022-09-02T15:28:02.693Z,93800.06
2022-09-02T15:30:31.097Z,93805.50
2022-09-02T15:32:59.521Z,93808.22
2022-09-02T15:35:27.280Z,93800.84
2022-09-02T15:37:55.726Z,93803.56
2022-09-02T15:40:24.756Z,93804.66
2022-09-02T15:42:52.421Z,93811.72
2022-09-02T15:45:20.029Z,93812.00
2022-09-02T15:47:47.658Z,93813.66
2022-09-02T15:50:15.268Z,93812.81
2022-09-02T15:52:42.913Z,93813.66
2022-09-02T15:55:11.009Z,93812.00
2022-09-02T15:57:41.268Z,93814.72
2022-09-02T16:00:10.845Z,93810.94
2022-09-02T16:02:38.911Z,93798.41
2022-09-02T16:05:07.058Z,93800.31
2022-09-02T16:07:34.673Z,93804.16
2022-09-02T16:10:03.742Z,93799.50
2022-09-02T16:12:31.757Z,93800.84
2022-09-02T16:15:00.726Z,93798.13
2022-09-02T16:17:28.385Z,93797.59
2022-09-02T16:19:56.139Z,93797.03
2022-09-02T16:22:23.789Z,93808.22
2022-09-02T16:24:51.690Z,93791.06
2022-09-02T16:27:40.634Z,93792.69
2022-09-02T16:30:10.285Z,93798.41
2022-09-02T16:32:38.489Z,93793.78
2022-09-02T16:35:07.101Z,93794.06
2022-09-02T16:37:34.776Z,93788.63
2022-09-02T16:40:03.344Z,93793.28
2022-09-02T16:42:34.809Z,93794.06
2022-09-02T16:45:05.592Z,93787.84
2022-09-02T16:47:34.620Z,93785.13
2022-09-02T16:50:02.237Z,93785.63
2022-09-02T16:52:32.122Z,93778.84
2022-09-02T16:54:59.762Z,93775.84
2022-09-02T16:57:27.518Z,93782.09
2022-09-02T16:59:56.451Z,93781.28
2022-09-02T17:02:25.711Z,93772.03
2022-09-02T17:04:55.162Z,93769.25
2022-09-02T17:07:23.331Z,93769.19
2022-09-02T17:09:51.879Z,93767.22
2022-09-02T17:12:19.710Z,93763.84
2022-09-02T17:14:47.587Z,93772.47
2022-09-02T17:17:17.210Z,93773.25
2022-09-02T17:19:45.165Z,93773.69
2022-09-02T17:22:15.155Z,93772.03
2022-09-02T17:24:43.160Z,93773.28
2022-09-02T17:29:53.016Z,93779.13
2022-09-02T17:32:21.045Z,93789.09
2022-09-02T17:34:50.044Z,93790.94
2022-09-02T17:37:19.515Z,93789.28
2022-09-02T17:39:47.554Z,93792.50
2022-09-02T17:42:14.422Z,93787.81
2022-09-02T17:44:42.629Z,93791.81
2022-09-02T17:47:11.115Z,93786.31
2022-09-02T17:49:39.225Z,93791.97
2022-09-02T17:52:07.619Z,93782.72
2022-09-02T17:54:36.857Z,93773.22
2022-09-02T17:57:10.302Z,93780.00
2022-09-02T17:59:49.472Z,93771.81
2022-09-02T18:02:42.330Z,93779.41
2022-09-02T18:05:16.878Z,93785.34
2022-09-02T18:07:50.743Z,93789.41
2022-09-02T18:10:20.260Z,93794.25
2022-09-02T18:12:48.096Z,93795.59
2022-09-02T18:15:17.940Z,93791.41
2022-09-02T18:17:47.679Z,93798.47
2022-09-02T18:20:19.631Z,93795.44
2022-09-02T18:23:13.403Z,93789.19
2022-09-02T18:25:50.829Z,93799.78
2022-09-02T18:28:27.032Z,93801.72
2022-09-02T18:31:00.995Z,93812.31
2022-09-02T18:33:45.177Z,93809.28
2022-09-02T18:36:19.626Z,93811.41
2022-09-02T18:38:50.277Z,93815.25
2022-09-02T18:41:30.203Z,93820.41
2022-09-02T18:44:07.658Z,93814.97
2022-09-02T18:46:43.121Z,93820.91
2022-09-02T18:49:11.014Z,93822.03
2022-09-02T18:51:40.394Z,93821.75
2022-09-02T18:54:13.382Z,93827.19
2022-09-02T18:56:46.039Z,93824.47
2022-09-02T18:59:14.209Z,93824.47
2022-09-02T19:01:43.750Z,93835.06
2022-09-02T19:04:11.762Z,93830.94
2022-09-02T19:06:39.660Z,93826.88
2022-09-02T19:09:07.165Z,93820.63
2022-09-02T19:11:35.604Z,93828.50
2022-09-02T19:14:22.135Z,93826.59
2022-09-02T19:16:49.923Z,93831.22
2022-09-02T19:19:18.942Z,93845.06
2022-09-02T19:21:48.640Z,93841.84
2022-09-02T19:24:23.866Z,93838.09
2022-09-02T19:26:51.862Z,93843.31
2022-09-02T19:29:25.374Z,93838.75
2022-09-02T19:31:54.563Z,93841.25
2022-09-02T19:34:22.478Z,93843.25
2022-09-02T19:36:50.545Z,93838.66
2022-09-02T19:39:18.257Z,93841.47
2022-09-02T19:41:47.618Z,93845.88
2022-09-02T19:44:17.384Z,93844.81
2022-09-02T19:49:36.637Z,93835.41
2022-09-02T19:52:04.296Z,93844.16
2022-09-02T19:54:32.076Z,93840.41
2022-09-02T19:56:59.708Z,93842.63
2022-09-02T19:59:27.513Z,93845.91
2022-09-02T20:01:57.309Z,93841.06
2022-09-02T20:04:25.116Z,93836.72
2022-09-02T20:06:58.695Z,93826.44
2022-09-02T20:09:29.310Z,93831.34
2022-09-02T20:11:57.196Z,93829.75
2022-09-02T20:14:26.213Z,93833.03
2022-09-02T20:16:58.266Z,93836.84
2022-09-02T20:19:26.503Z,93837.16
2022-09-02T20:21:54.453Z,93843.19
2022-09-02T20:24:27.270Z,93833.69
2022-09-02T20:26:58.998Z,93832.06
2022-09-02T20:29:34.681Z,93838.63
2022-09-02T20:32:07.238Z,93829.13
2022-09-02T20:34:47.736Z,93825.56
2022-09-02T20:37:21.016Z,93820.72
2022-09-02T20:40:17.722Z,93826.97
2022-09-02T20:42:55.662Z,93824.53
2022-09-02T20:45:24.685Z,93826.75
2022-09-02T20:48:00.986Z,93820.47
2022-09-02T20:50:46.363Z,93825.41
2022-09-02T20:53:24.106Z,93826.50
2022-09-02T20:55:54.126Z,93820.28
2022-09-02T20:58:27.708Z,93815.09
2022-09-02T21:01:03.010Z,93822.47
2022-09-02T21:03:41.209Z,93817.31
2022-09-02T21:06:10.610Z,93823.56
2022-09-02T21:08:42.500Z,93825.47
2022-09-02T21:11:14.595Z,93822.25
2022-09-02T21:13:46.230Z,93821.41
2022-09-02T21:16:19.556Z,93819.81
2022-09-02T21:18:52.181Z,93822.53
2022-09-02T21:21:23.077Z,93829.06
2022-09-02T21:23:51.918Z,93825.56
2022-09-02T21:26:23.375Z,93820.38
2022-09-02T21:28:53.291Z,93823.09
2022-09-02T21:31:26.005Z,93825.00
2022-09-02T21:33:54.980Z,93821.47
2022-09-02T21:36:25.776Z,93826.06
2022-09-02T21:38:53.423Z,93825.28
2022-09-02T21:41:30.618Z,93822.56
2022-09-02T21:44:03.198Z,93832.09
2022-09-02T21:46:33.201Z,93832.09
2022-09-02T21:49:06.119Z,93831.31
2022-09-02T21:51:37.272Z,93826.66
2022-09-02T21:54:13.318Z,93820.44
2022-09-02T21:56:52.248Z,93807.91
2022-09-02T21:59:30.811Z,93811.44
2022-09-02T22:02:00.332Z,93807.09
2022-09-02T22:04:36.730Z,93803.56
2022-09-02T22:07:13.886Z,93801.94
2022-09-02T22:09:43.102Z,93805.47
2022-09-02T22:12:14.628Z,93808.19
2022-09-02T22:14:44.810Z,93803.03
2022-09-02T22:17:14.914Z,93802.25
2022-09-02T22:19:43.897Z,93799.53
2022-09-02T22:22:14.577Z,93804.16
2022-09-02T22:24:42.561Z,93804.97
2022-09-02T22:27:12.550Z,93806.34
2022-09-02T22:29:42.557Z,93807.97
2022-09-02T22:32:11.665Z,93810.69
2022-09-02T22:34:43.570Z,93800.09
2022-09-02T22:37:18.621Z,93807.44
2022-09-02T22:39:50.121Z,93809.34
2022-09-02T22:42:21.387Z,93814.00
2022-09-02T22:45:09.738Z,93809.34
2022-09-02T22:47:54.901Z,93802.28
2022-09-02T22:50:43.963Z,93798.78
2022-09-02T22:53:13.061Z,93789.78
2022-09-02T22:55:46.508Z,93799.06
2022-09-02T22:58:41.534Z,93804.50
2022-09-02T23:01:13.564Z,93796.34
2022-09-02T23:03:43.809Z,93800.16
2022-09-02T23:06:19.832Z,93804.50
2022-09-02T23:08:49.395Z,93799.34
2022-09-02T23:11:25.068Z,93802.09
2022-09-02T23:13:58.182Z,93803.97
2022-09-02T23:16:29.494Z,93806.69
2022-09-02T23:19:04.010Z,93813.75
2022-09-02T23:21:37.141Z,93810.53
2022-09-02T23:24:10.581Z,93811.31
2022-09-02T23:26:43.025Z,93807.81
2022-09-02T23:29:16.511Z,93805.06
2022-09-02T23:32:02.953Z,93810.53
2022-09-02T23:34:37.573Z,93806.97
2022-09-02T23:37:09.380Z,93807.81
2022-09-02T23:39:46.179Z,93806.97
2022-09-02T23:42:13.951Z,93809.69
2022-09-02T23:44:42.129Z,93803.47
2022-09-02T23:47:19.376Z,93799.91
2022-09-02T23:49:50.023Z,93796.41
2022-09-02T23:52:24.733Z,93792.84
2022-09-02T23:55:00.708Z,93790.13
2022-09-02T23:57:43.306Z,93797.50
